CheckWX is a tool to help pilots better visualize weather data.  It is not intended as a substitute for an official pre-flight weather briefing.

08:01:00 UTC

YGEL TAF
Geraldton Airport
Australia
TAF AMD YGEL 190706Z 1907/1924 21014KT 9999 BKN017 FM191600 18005KT 9999 BKN016

Mar-19@
07:00 UTC

Mar-19 @ 07:00 UTC

Mar-19@
16:00 UTC

Mar-19 @ 16:00 UTC

TAF AMD YGEL 190706Z 1907/1924 21014KT 9999 BKN017
Wind
  • 210° at 14 KTS
Cloud Levels
  • Broken at 1,700' AGL

Mar-19@
16:00 UTC

Mar-19 @ 16:00 UTC

Mar-20@
00:00 UTC

Mar-20 @ 00:00 UTC

FM191600 18005KT 9999 BKN016

From

From Standard forecast or significant change

Wind
  • 180° at 5 KTS
Cloud Levels
  • Broken at 1,600' AGL